sensor_id;sensor_type;location;lat;lon;timestamp;P1;durP1;ratioP1;P2;durP2;ratioP2
27939;SDS011;15275;51.716;14.324;2023-01-28T00:01:22;7.93;;;3.22;;
27939;SDS011;15275;51.716;14.324;2023-01-28T00:03:48;5.97;;;2.83;;
27939;SDS011;15275;51.716;14.324;2023-01-28T00:06:16;7.65;;;3.15;;
27939;SDS011;15275;51.716;14.324;2023-01-28T00:08:43;5.70;;;2.90;;
27939;SDS011;15275;51.716;14.324;2023-01-28T00:11:10;4.88;;;2.38;;
27939;SDS011;15275;51.716;14.324;2023-01-28T00:13:37;7.88;;;2.72;;
27939;SDS011;15275;51.716;14.324;2023-01-28T00:16:03;6.82;;;2.55;;
27939;SDS011;15275;51.716;14.324;2023-01-28T00:18:33;9.48;;;2.83;;
27939;SDS011;15275;51.716;14.324;2023-01-28T00:21:06;8.65;;;3.42;;
27939;SDS011;15275;51.716;14.324;2023-01-28T00:23:36;6.15;;;3.10;;
27939;SDS011;15275;51.716;14.324;2023-01-28T00:26:09;8.38;;;3.58;;
27939;SDS011;15275;51.716;14.324;2023-01-28T00:28:38;8.50;;;2.85;;
27939;SDS011;15275;51.716;14.324;2023-01-28T00:31:06;6.15;;;3.15;;
27939;SDS011;15275;51.716;14.324;2023-01-28T00:33:41;8.80;;;3.85;;
27939;SDS011;15275;51.716;14.324;2023-01-28T00:36:08;7.57;;;3.40;;
27939;SDS011;15275;51.716;14.324;2023-01-28T00:38:35;8.25;;;3.30;;
27939;SDS011;15275;51.716;14.324;2023-01-28T00:41:10;6.47;;;3.15;;
27939;SDS011;15275;51.716;14.324;2023-01-28T00:43:40;6.75;;;3.85;;
27939;SDS011;15275;51.716;14.324;2023-01-28T00:46:08;5.65;;;3.40;;
27939;SDS011;15275;51.716;14.324;2023-01-28T00:48:35;6.30;;;3.35;;
27939;SDS011;15275;51.716;14.324;2023-01-28T00:51:03;7.18;;;3.25;;
27939;SDS011;15275;51.716;14.324;2023-01-28T00:53:29;5.07;;;3.03;;
27939;SDS011;15275;51.716;14.324;2023-01-28T00:55:55;6.32;;;3.25;;
27939;SDS011;15275;51.716;14.324;2023-01-28T00:58:21;4.68;;;3.13;;
27939;SDS011;15275;51.716;14.324;2023-01-28T01:00:48;7.15;;;2.85;;
27939;SDS011;15275;51.716;14.324;2023-01-28T01:03:15;6.70;;;3.13;;
27939;SDS011;15275;51.716;14.324;2023-01-28T01:05:42;5.15;;;2.83;;
27939;SDS011;15275;51.716;14.324;2023-01-28T01:08:08;6.35;;;3.17;;
27939;SDS011;15275;51.716;14.324;2023-01-28T01:10:34;6.82;;;2.78;;
27939;SDS011;15275;51.716;14.324;2023-01-28T01:13:01;6.82;;;3.40;;
27939;SDS011;15275;51.716;14.324;2023-01-28T01:15:27;4.35;;;2.90;;
27939;SDS011;15275;51.716;14.324;2023-01-28T01:17:53;5.60;;;2.75;;
27939;SDS011;15275;51.716;14.324;2023-01-28T01:20:23;6.88;;;2.75;;
27939;SDS011;15275;51.716;14.324;2023-01-28T01:22:51;7.68;;;2.92;;
27939;SDS011;15275;51.716;14.324;2023-01-28T01:25:18;6.28;;;3.05;;
27939;SDS011;15275;51.716;14.324;2023-01-28T01:27:46;7.47;;;2.83;;
27939;SDS011;15275;51.716;14.324;2023-01-28T01:30:14;8.30;;;2.83;;
27939;SDS011;15275;51.716;14.324;2023-01-28T01:32:41;10.10;;;3.40;;
27939;SDS011;15275;51.716;14.324;2023-01-28T01:35:07;5.70;;;3.15;;
27939;SDS011;15275;51.716;14.324;2023-01-28T01:37:34;5.63;;;2.85;;
27939;SDS011;15275;51.716;14.324;2023-01-28T01:40:00;8.82;;;3.00;;
27939;SDS011;15275;51.716;14.324;2023-01-28T01:42:28;8.10;;;3.30;;
27939;SDS011;15275;51.716;14.324;2023-01-28T01:45:05;5.15;;;2.97;;
27939;SDS011;15275;51.716;14.324;2023-01-28T01:47:56;9.18;;;3.13;;
27939;SDS011;15275;51.716;14.324;2023-01-28T01:50:35;7.57;;;3.20;;
27939;SDS011;15275;51.716;14.324;2023-01-28T01:53:15;4.90;;;2.20;;
27939;SDS011;15275;51.716;14.324;2023-01-28T01:55:44;6.50;;;2.80;;
27939;SDS011;15275;51.716;14.324;2023-01-28T01:58:15;7.22;;;3.08;;
27939;SDS011;15275;51.716;14.324;2023-01-28T02:00:44;7.38;;;3.40;;
27939;SDS011;15275;51.716;14.324;2023-01-28T02:03:11;8.35;;;3.42;;
27939;SDS011;15275;51.716;14.324;2023-01-28T02:05:37;8.20;;;3.33;;
27939;SDS011;15275;51.716;14.324;2023-01-28T02:08:04;9.73;;;3.72;;
27939;SDS011;15275;51.716;14.324;2023-01-28T02:10:49;8.63;;;3.30;;
27939;SDS011;15275;51.716;14.324;2023-01-28T02:13:24;5.38;;;3.38;;
27939;SDS011;15275;51.716;14.324;2023-01-28T02:15:54;6.35;;;2.63;;
27939;SDS011;15275;51.716;14.324;2023-01-28T02:18:21;5.38;;;3.40;;
27939;SDS011;15275;51.716;14.324;2023-01-28T02:27:30;7.25;;;3.13;;
27939;SDS011;15275;51.716;14.324;2023-01-28T02:30:21;5.88;;;2.75;;
27939;SDS011;15275;51.716;14.324;2023-01-28T02:33:00;4.53;;;2.63;;
27939;SDS011;15275;51.716;14.324;2023-01-28T02:35:57;8.32;;;3.20;;
27939;SDS011;15275;51.716;14.324;2023-01-28T02:41:04;6.50;;;3.05;;
27939;SDS011;15275;51.716;14.324;2023-01-28T02:46:10;7.82;;;3.65;;
27939;SDS011;15275;51.716;14.324;2023-01-28T02:49:03;9.32;;;3.50;;
27939;SDS011;15275;51.716;14.324;2023-01-28T02:54:38;8.98;;;3.30;;
27939;SDS011;15275;51.716;14.324;2023-01-28T02:57:38;8.00;;;3.60;;
27939;SDS011;15275;51.716;14.324;2023-01-28T03:06:04;10.75;;;4.78;;
27939;SDS011;15275;51.716;14.324;2023-01-28T03:08:45;11.07;;;3.47;;
27939;SDS011;15275;51.716;14.324;2023-01-28T03:11:31;7.72;;;3.40;;
27939;SDS011;15275;51.716;14.324;2023-01-28T03:14:22;6.43;;;3.55;;
27939;SDS011;15275;51.716;14.324;2023-01-28T03:17:09;7.53;;;3.72;;
27939;SDS011;15275;51.716;14.324;2023-01-28T03:19:59;9.30;;;3.88;;
27939;SDS011;15275;51.716;14.324;2023-01-28T03:22:44;8.95;;;3.55;;
27939;SDS011;15275;51.716;14.324;2023-01-28T03:25:34;8.30;;;4.20;;
27939;SDS011;15275;51.716;14.324;2023-01-28T03:28:20;6.65;;;3.50;;
27939;SDS011;15275;51.716;14.324;2023-01-28T03:31:08;7.57;;;4.32;;
27939;SDS011;15275;51.716;14.324;2023-01-28T03:33:57;8.02;;;4.00;;
27939;SDS011;15275;51.716;14.324;2023-01-28T03:36:43;8.05;;;4.25;;
27939;SDS011;15275;51.716;14.324;2023-01-28T03:39:15;6.57;;;3.95;;
27939;SDS011;15275;51.716;14.324;2023-01-28T03:41:54;7.55;;;3.97;;
27939;SDS011;15275;51.716;14.324;2023-01-28T03:44:32;11.50;;;4.38;;
27939;SDS011;15275;51.716;14.324;2023-01-28T03:47:22;11.30;;;4.32;;
27939;SDS011;15275;51.716;14.324;2023-01-28T03:49:51;9.48;;;4.47;;
27939;SDS011;15275;51.716;14.324;2023-01-28T03:52:20;7.22;;;4.03;;
27939;SDS011;15275;51.716;14.324;2023-01-28T03:54:54;8.00;;;3.97;;
27939;SDS011;15275;51.716;14.324;2023-01-28T03:57:24;7.43;;;3.55;;
27939;SDS011;15275;51.716;14.324;2023-01-28T03:59:52;6.65;;;3.55;;
27939;SDS011;15275;51.716;14.324;2023-01-28T04:02:19;7.35;;;3.50;;
27939;SDS011;15275;51.716;14.324;2023-01-28T04:04:47;7.10;;;4.15;;
27939;SDS011;15275;51.716;14.324;2023-01-28T04:07:14;6.38;;;3.83;;
27939;SDS011;15275;51.716;14.324;2023-01-28T04:09:40;6.82;;;3.45;;
27939;SDS011;15275;51.716;14.324;2023-01-28T04:12:07;7.57;;;3.75;;
27939;SDS011;15275;51.716;14.324;2023-01-28T04:14:34;8.85;;;4.03;;
27939;SDS011;15275;51.716;14.324;2023-01-28T04:17:00;6.35;;;3.65;;
27939;SDS011;15275;51.716;14.324;2023-01-28T04:19:26;8.05;;;3.35;;
27939;SDS011;15275;51.716;14.324;2023-01-28T04:21:53;7.60;;;3.55;;
27939;SDS011;15275;51.716;14.324;2023-01-28T04:24:20;9.18;;;3.83;;
27939;SDS011;15275;51.716;14.324;2023-01-28T04:26:46;5.90;;;3.42;;
27939;SDS011;15275;51.716;14.324;2023-01-28T04:29:13;6.38;;;3.53;;
27939;SDS011;15275;51.716;14.324;2023-01-28T04:31:39;7.90;;;3.28;;
27939;SDS011;15275;51.716;14.324;2023-01-28T04:34:05;10.35;;;3.42;;
27939;SDS011;15275;51.716;14.324;2023-01-28T04:36:31;6.20;;;3.75;;
27939;SDS011;15275;51.716;14.324;2023-01-28T04:38:56;4.85;;;3.03;;
27939;SDS011;15275;51.716;14.324;2023-01-28T04:41:22;5.38;;;2.78;;
27939;SDS011;15275;51.716;14.324;2023-01-28T04:43:48;7.00;;;3.00;;
27939;SDS011;15275;51.716;14.324;2023-01-28T04:46:14;5.18;;;2.95;;
27939;SDS011;15275;51.716;14.324;2023-01-28T04:48:41;5.63;;;2.90;;
27939;SDS011;15275;51.716;14.324;2023-01-28T04:51:07;6.05;;;3.28;;
27939;SDS011;15275;51.716;14.324;2023-01-28T04:53:33;7.53;;;3.80;;
27939;SDS011;15275;51.716;14.324;2023-01-28T04:55:59;5.95;;;3.13;;
27939;SDS011;15275;51.716;14.324;2023-01-28T04:58:25;7.68;;;3.28;;
27939;SDS011;15275;51.716;14.324;2023-01-28T05:00:55;12.02;;;3.60;;
27939;SDS011;15275;51.716;14.324;2023-01-28T05:03:22;6.90;;;3.13;;
27939;SDS011;15275;51.716;14.324;2023-01-28T05:05:49;6.75;;;2.92;;
27939;SDS011;15275;51.716;14.324;2023-01-28T05:08:15;5.43;;;2.83;;
27939;SDS011;15275;51.716;14.324;2023-01-28T05:10:41;7.10;;;3.67;;
27939;SDS011;15275;51.716;14.324;2023-01-28T05:13:08;7.80;;;3.60;;
27939;SDS011;15275;51.716;14.324;2023-01-28T05:15:33;7.50;;;2.85;;
27939;SDS011;15275;51.716;14.324;2023-01-28T05:17:59;7.78;;;3.38;;
27939;SDS011;15275;51.716;14.324;2023-01-28T05:20:26;8.27;;;3.45;;
27939;SDS011;15275;51.716;14.324;2023-01-28T05:22:51;7.15;;;3.10;;
27939;SDS011;15275;51.716;14.324;2023-01-28T05:25:17;8.27;;;3.22;;
27939;SDS011;15275;51.716;14.324;2023-01-28T05:27:47;8.57;;;3.50;;
27939;SDS011;15275;51.716;14.324;2023-01-28T05:30:15;10.18;;;3.65;;
27939;SDS011;15275;51.716;14.324;2023-01-28T05:32:45;6.13;;;3.58;;
27939;SDS011;15275;51.716;14.324;2023-01-28T05:35:11;6.72;;;3.30;;
27939;SDS011;15275;51.716;14.324;2023-01-28T05:37:36;6.47;;;3.05;;
27939;SDS011;15275;51.716;14.324;2023-01-28T05:40:02;9.02;;;3.38;;
27939;SDS011;15275;51.716;14.324;2023-01-28T05:42:29;6.20;;;3.58;;
27939;SDS011;15275;51.716;14.324;2023-01-28T05:44:55;8.70;;;3.30;;
27939;SDS011;15275;51.716;14.324;2023-01-28T05:47:21;5.22;;;2.80;;
27939;SDS011;15275;51.716;14.324;2023-01-28T05:49:46;6.82;;;3.30;;
27939;SDS011;15275;51.716;14.324;2023-01-28T05:52:12;5.72;;;3.05;;
27939;SDS011;15275;51.716;14.324;2023-01-28T05:54:38;8.48;;;3.28;;
27939;SDS011;15275;51.716;14.324;2023-01-28T05:57:04;8.70;;;3.38;;
27939;SDS011;15275;51.716;14.324;2023-01-28T05:59:30;6.03;;;2.90;;
27939;SDS011;15275;51.716;14.324;2023-01-28T06:01:56;5.68;;;2.97;;
27939;SDS011;15275;51.716;14.324;2023-01-28T06:04:21;8.32;;;2.97;;
27939;SDS011;15275;51.716;14.324;2023-01-28T06:06:47;7.28;;;3.30;;
27939;SDS011;15275;51.716;14.324;2023-01-28T06:09:13;7.00;;;3.00;;
27939;SDS011;15275;51.716;14.324;2023-01-28T06:11:39;5.90;;;3.08;;
27939;SDS011;15275;51.716;14.324;2023-01-28T06:14:05;7.65;;;2.90;;
27939;SDS011;15275;51.716;14.324;2023-01-28T06:16:31;7.60;;;3.10;;
27939;SDS011;15275;51.716;14.324;2023-01-28T06:18:56;5.47;;;2.85;;
27939;SDS011;15275;51.716;14.324;2023-01-28T06:21:22;6.82;;;2.95;;
27939;SDS011;15275;51.716;14.324;2023-01-28T06:23:48;4.95;;;2.05;;
27939;SDS011;15275;51.716;14.324;2023-01-28T06:26:14;5.18;;;2.38;;
27939;SDS011;15275;51.716;14.324;2023-01-28T06:28:40;4.03;;;2.33;;
27939;SDS011;15275;51.716;14.324;2023-01-28T06:31:06;4.28;;;2.30;;
27939;SDS011;15275;51.716;14.324;2023-01-28T06:33:32;5.53;;;2.25;;
27939;SDS011;15275;51.716;14.324;2023-01-28T06:35:57;4.75;;;2.17;;
27939;SDS011;15275;51.716;14.324;2023-01-28T06:38:27;4.35;;;2.47;;
27939;SDS011;15275;51.716;14.324;2023-01-28T06:40:53;6.93;;;2.47;;
27939;SDS011;15275;51.716;14.324;2023-01-28T06:43:20;4.43;;;2.08;;
27939;SDS011;15275;51.716;14.324;2023-01-28T06:45:52;4.13;;;1.95;;
27939;SDS011;15275;51.716;14.324;2023-01-28T06:48:25;4.30;;;2.05;;
27939;SDS011;15275;51.716;14.324;2023-01-28T06:50:51;4.47;;;1.95;;
27939;SDS011;15275;51.716;14.324;2023-01-28T06:53:17;7.10;;;2.22;;
27939;SDS011;15275;51.716;14.324;2023-01-28T06:55:44;7.28;;;2.38;;
27939;SDS011;15275;51.716;14.324;2023-01-28T06:58:10;3.85;;;2.22;;
27939;SDS011;15275;51.716;14.324;2023-01-28T07:00:36;3.45;;;1.88;;
27939;SDS011;15275;51.716;14.324;2023-01-28T07:03:02;2.63;;;1.45;;
27939;SDS011;15275;51.716;14.324;2023-01-28T07:05:28;6.88;;;2.00;;
27939;SDS011;15275;51.716;14.324;2023-01-28T07:07:54;3.38;;;1.65;;
27939;SDS011;15275;51.716;14.324;2023-01-28T07:10:20;4.78;;;1.60;;
27939;SDS011;15275;51.716;14.324;2023-01-28T07:12:46;3.45;;;1.95;;
27939;SDS011;15275;51.716;14.324;2023-01-28T07:15:12;2.25;;;1.70;;
27939;SDS011;15275;51.716;14.324;2023-01-28T07:17:42;3.55;;;1.63;;
27939;SDS011;15275;51.716;14.324;2023-01-28T07:20:09;2.67;;;1.60;;
27939;SDS011;15275;51.716;14.324;2023-01-28T07:22:41;5.00;;;2.20;;
27939;SDS011;15275;51.716;14.324;2023-01-28T07:25:08;5.82;;;1.80;;
27939;SDS011;15275;51.716;14.324;2023-01-28T07:27:35;5.05;;;2.25;;
27939;SDS011;15275;51.716;14.324;2023-01-28T07:30:02;3.30;;;1.65;;
27939;SDS011;15275;51.716;14.324;2023-01-28T07:32:29;4.90;;;1.95;;
27939;SDS011;15275;51.716;14.324;2023-01-28T07:34:55;4.45;;;1.75;;
27939;SDS011;15275;51.716;14.324;2023-01-28T07:37:20;3.75;;;1.88;;
27939;SDS011;15275;51.716;14.324;2023-01-28T07:39:47;3.55;;;1.83;;
27939;SDS011;15275;51.716;14.324;2023-01-28T07:42:12;3.75;;;1.70;;
27939;SDS011;15275;51.716;14.324;2023-01-28T07:44:38;5.25;;;2.13;;
27939;SDS011;15275;51.716;14.324;2023-01-28T07:47:04;6.45;;;1.88;;
27939;SDS011;15275;51.716;14.324;2023-01-28T07:49:32;3.40;;;1.90;;
27939;SDS011;15275;51.716;14.324;2023-01-28T07:51:58;4.22;;;1.60;;
27939;SDS011;15275;51.716;14.324;2023-01-28T07:54:24;2.67;;;1.50;;
27939;SDS011;15275;51.716;14.324;2023-01-28T07:56:50;4.38;;;1.88;;
27939;SDS011;15275;51.716;14.324;2023-01-28T07:59:16;3.85;;;1.80;;
27939;SDS011;15275;51.716;14.324;2023-01-28T08:01:42;3.92;;;1.70;;
27939;SDS011;15275;51.716;14.324;2023-01-28T08:04:07;2.72;;;1.70;;
27939;SDS011;15275;51.716;14.324;2023-01-28T08:06:33;3.13;;;2.10;;
27939;SDS011;15275;51.716;14.324;2023-01-28T08:09:03;5.47;;;1.63;;
27939;SDS011;15275;51.716;14.324;2023-01-28T08:11:30;2.80;;;1.50;;
27939;SDS011;15275;51.716;14.324;2023-01-28T08:13:57;3.97;;;1.88;;
27939;SDS011;15275;51.716;14.324;2023-01-28T08:16:23;4.97;;;1.95;;
27939;SDS011;15275;51.716;14.324;2023-01-28T08:18:48;2.55;;;1.50;;
27939;SDS011;15275;51.716;14.324;2023-01-28T08:21:14;6.10;;;2.10;;
27939;SDS011;15275;51.716;14.324;2023-01-28T08:23:40;5.32;;;2.33;;
27939;SDS011;15275;51.716;14.324;2023-01-28T08:26:06;3.45;;;2.10;;
27939;SDS011;15275;51.716;14.324;2023-01-28T08:28:31;5.25;;;2.00;;
27939;SDS011;15275;51.716;14.324;2023-01-28T08:31:00;7.72;;;1.90;;
27939;SDS011;15275;51.716;14.324;2023-01-28T08:33:27;4.65;;;1.88;;
27939;SDS011;15275;51.716;14.324;2023-01-28T08:35:52;4.07;;;2.45;;
27939;SDS011;15275;51.716;14.324;2023-01-28T08:38:18;4.20;;;2.03;;
27939;SDS011;15275;51.716;14.324;2023-01-28T08:40:45;4.35;;;2.00;;
27939;SDS011;15275;51.716;14.324;2023-01-28T08:43:14;2.70;;;1.50;;
27939;SDS011;15275;51.716;14.324;2023-01-28T08:45:40;2.10;;;1.42;;
27939;SDS011;15275;51.716;14.324;2023-01-28T08:48:07;2.47;;;1.50;;
27939;SDS011;15275;51.716;14.324;2023-01-28T08:50:38;5.10;;;1.90;;
27939;SDS011;15275;51.716;14.324;2023-01-28T08:53:06;4.95;;;2.20;;
27939;SDS011;15275;51.716;14.324;2023-01-28T08:55:35;3.28;;;1.50;;
27939;SDS011;15275;51.716;14.324;2023-01-28T08:58:02;5.80;;;1.92;;
27939;SDS011;15275;51.716;14.324;2023-01-28T09:00:34;2.85;;;1.65;;
27939;SDS011;15275;51.716;14.324;2023-01-28T09:03:01;5.78;;;2.10;;
27939;SDS011;15275;51.716;14.324;2023-01-28T09:05:27;3.17;;;1.98;;
27939;SDS011;15275;51.716;14.324;2023-01-28T09:07:54;3.65;;;1.77;;
27939;SDS011;15275;51.716;14.324;2023-01-28T09:10:20;4.90;;;1.73;;
27939;SDS011;15275;51.716;14.324;2023-01-28T09:12:45;3.00;;;2.00;;
27939;SDS011;15275;51.716;14.324;2023-01-28T09:15:11;5.03;;;2.25;;
27939;SDS011;15275;51.716;14.324;2023-01-28T09:17:38;7.75;;;2.10;;
27939;SDS011;15275;51.716;14.324;2023-01-28T09:20:05;5.55;;;2.25;;
27939;SDS011;15275;51.716;14.324;2023-01-28T09:22:32;4.40;;;2.10;;
27939;SDS011;15275;51.716;14.324;2023-01-28T09:24:58;10.20;;;2.30;;
27939;SDS011;15275;51.716;14.324;2023-01-28T09:27:24;4.47;;;2.63;;
27939;SDS011;15275;51.716;14.324;2023-01-28T09:29:49;3.40;;;2.25;;
27939;SDS011;15275;51.716;14.324;2023-01-28T09:32:15;4.95;;;2.13;;
27939;SDS011;15275;51.716;14.324;2023-01-28T09:34:41;4.53;;;2.00;;
27939;SDS011;15275;51.716;14.324;2023-01-28T09:37:08;3.00;;;1.65;;
27939;SDS011;15275;51.716;14.324;2023-01-28T09:39:35;6.72;;;1.98;;
27939;SDS011;15275;51.716;14.324;2023-01-28T09:47:45;9.77;;;2.10;;
27939;SDS011;15275;51.716;14.324;2023-01-28T09:50:22;3.78;;;2.25;;
27939;SDS011;15275;51.716;14.324;2023-01-28T09:55:53;5.05;;;2.00;;
27939;SDS011;15275;51.716;14.324;2023-01-28T09:58:22;4.47;;;1.63;;
27939;SDS011;15275;51.716;14.324;2023-01-28T10:18:09;4.68;;;1.83;;
27939;SDS011;15275;51.716;14.324;2023-01-28T10:20:44;4.80;;;2.05;;
27939;SDS011;15275;51.716;14.324;2023-01-28T10:23:19;3.42;;;2.15;;
27939;SDS011;15275;51.716;14.324;2023-01-28T10:26:15;4.70;;;2.00;;
27939;SDS011;15275;51.716;14.324;2023-01-28T10:28:52;3.63;;;2.22;;
27939;SDS011;15275;51.716;14.324;2023-01-28T10:31:22;3.10;;;1.90;;
27939;SDS011;15275;51.716;14.324;2023-01-28T10:33:55;4.95;;;2.03;;
27939;SDS011;15275;51.716;14.324;2023-01-28T10:36:20;2.50;;;2.10;;
27939;SDS011;15275;51.716;14.324;2023-01-28T10:38:47;4.28;;;2.13;;
27939;SDS011;15275;51.716;14.324;2023-01-28T10:41:15;2.95;;;2.03;;
27939;SDS011;15275;51.716;14.324;2023-01-28T10:43:46;3.22;;;2.00;;
27939;SDS011;15275;51.716;14.324;2023-01-28T10:46:16;1.98;;;1.52;;
27939;SDS011;15275;51.716;14.324;2023-01-28T10:51:37;3.47;;;2.00;;
27939;SDS011;15275;51.716;14.324;2023-01-28T10:54:25;3.35;;;1.90;;
27939;SDS011;15275;51.716;14.324;2023-01-28T10:57:12;3.22;;;1.52;;
27939;SDS011;15275;51.716;14.324;2023-01-28T10:59:40;5.30;;;1.83;;
27939;SDS011;15275;51.716;14.324;2023-01-28T11:05:05;5.57;;;2.05;;
27939;SDS011;15275;51.716;14.324;2023-01-28T11:07:44;3.70;;;1.70;;
27939;SDS011;15275;51.716;14.324;2023-01-28T11:10:48;2.97;;;1.88;;
27939;SDS011;15275;51.716;14.324;2023-01-28T11:18:15;5.30;;;2.90;;
27939;SDS011;15275;51.716;14.324;2023-01-28T11:20:52;2.88;;;1.90;;
27939;SDS011;15275;51.716;14.324;2023-01-28T11:26:25;6.13;;;2.47;;
27939;SDS011;15275;51.716;14.324;2023-01-28T11:28:46;3.50;;;1.88;;
27939;SDS011;15275;51.716;14.324;2023-01-28T11:31:14;4.28;;;1.98;;
27939;SDS011;15275;51.716;14.324;2023-01-28T11:33:43;3.25;;;1.88;;
27939;SDS011;15275;51.716;14.324;2023-01-28T11:36:22;2.83;;;1.30;;
27939;SDS011;15275;51.716;14.324;2023-01-28T11:41:31;4.28;;;1.40;;
27939;SDS011;15275;51.716;14.324;2023-01-28T11:44:21;3.75;;;1.55;;
27939;SDS011;15275;51.716;14.324;2023-01-28T12:01:54;3.35;;;1.80;;
27939;SDS011;15275;51.716;14.324;2023-01-28T12:07:44;5.32;;;1.95;;
27939;SDS011;15275;51.716;14.324;2023-01-28T12:27:26;8.27;;;2.67;;
27939;SDS011;15275;51.716;14.324;2023-01-28T12:30:57;4.93;;;2.75;;
27939;SDS011;15275;51.716;14.324;2023-01-28T12:33:32;12.30;;;3.05;;
27939;SDS011;15275;51.716;14.324;2023-01-28T12:41:52;5.78;;;2.30;;
27939;SDS011;15275;51.716;14.324;2023-01-28T12:44:50;5.55;;;1.92;;
27939;SDS011;15275;51.716;14.324;2023-01-28T12:47:22;3.35;;;1.90;;
27939;SDS011;15275;51.716;14.324;2023-01-28T12:50:02;3.63;;;1.83;;
27939;SDS011;15275;51.716;14.324;2023-01-28T12:55:21;2.85;;;2.00;;
27939;SDS011;15275;51.716;14.324;2023-01-28T12:58:06;3.83;;;2.13;;
27939;SDS011;15275;51.716;14.324;2023-01-28T13:01:16;4.50;;;2.30;;
27939;SDS011;15275;51.716;14.324;2023-01-28T13:03:50;4.07;;;2.60;;
27939;SDS011;15275;51.716;14.324;2023-01-28T13:06:22;3.05;;;1.98;;
27939;SDS011;15275;51.716;14.324;2023-01-28T13:08:59;7.05;;;3.13;;
27939;SDS011;15275;51.716;14.324;2023-01-28T13:11:36;5.10;;;3.08;;
27939;SDS011;15275;51.716;14.324;2023-01-28T13:14:03;6.13;;;2.28;;
27939;SDS011;15275;51.716;14.324;2023-01-28T13:16:29;6.75;;;2.95;;
27939;SDS011;15275;51.716;14.324;2023-01-28T13:19:06;4.53;;;2.40;;
27939;SDS011;15275;51.716;14.324;2023-01-28T13:21:44;4.18;;;2.50;;
27939;SDS011;15275;51.716;14.324;2023-01-28T13:26:44;3.85;;;1.92;;
27939;SDS011;15275;51.716;14.324;2023-01-28T13:31:50;3.85;;;2.05;;
27939;SDS011;15275;51.716;14.324;2023-01-28T13:34:29;4.63;;;1.73;;
27939;SDS011;15275;51.716;14.324;2023-01-28T13:39:59;4.43;;;2.37;;
27939;SDS011;15275;51.716;14.324;2023-01-28T13:42:33;4.20;;;2.10;;
27939;SDS011;15275;51.716;14.324;2023-01-28T13:47:44;2.58;;;1.77;;
27939;SDS011;15275;51.716;14.324;2023-01-28T13:50:15;3.03;;;1.70;;
27939;SDS011;15275;51.716;14.324;2023-01-28T13:55:26;3.10;;;1.75;;
27939;SDS011;15275;51.716;14.324;2023-01-28T14:15:55;3.38;;;2.05;;
27939;SDS011;15275;51.716;14.324;2023-01-28T14:18:39;4.50;;;1.80;;
27939;SDS011;15275;51.716;14.324;2023-01-28T14:21:11;2.90;;;1.33;;
27939;SDS011;15275;51.716;14.324;2023-01-28T14:23:50;3.90;;;1.55;;
27939;SDS011;15275;51.716;14.324;2023-01-28T14:32:05;2.60;;;1.50;;
27939;SDS011;15275;51.716;14.324;2023-01-28T14:34:41;2.30;;;1.50;;
27939;SDS011;15275;51.716;14.324;2023-01-28T14:37:13;2.30;;;1.50;;
27939;SDS011;15275;51.716;14.324;2023-01-28T14:39:52;2.50;;;1.42;;
27939;SDS011;15275;51.716;14.324;2023-01-28T14:42:29;4.25;;;2.03;;
27939;SDS011;15275;51.716;14.324;2023-01-28T14:51:15;4.15;;;2.95;;
27939;SDS011;15275;51.716;14.324;2023-01-28T15:02:00;4.38;;;2.15;;
27939;SDS011;15275;51.716;14.324;2023-01-28T15:04:30;3.58;;;1.80;;
27939;SDS011;15275;51.716;14.324;2023-01-28T15:07:13;2.25;;;1.65;;
27939;SDS011;15275;51.716;14.324;2023-01-28T15:10:04;3.25;;;2.17;;
27939;SDS011;15275;51.716;14.324;2023-01-28T15:12:39;2.55;;;1.75;;
27939;SDS011;15275;51.716;14.324;2023-01-28T15:15:17;3.75;;;2.00;;
27939;SDS011;15275;51.716;14.324;2023-01-28T15:18:02;6.15;;;2.03;;
27939;SDS011;15275;51.716;14.324;2023-01-28T15:20:42;2.78;;;1.73;;
27939;SDS011;15275;51.716;14.324;2023-01-28T15:23:15;4.38;;;2.53;;
27939;SDS011;15275;51.716;14.324;2023-01-28T15:25:44;4.53;;;1.98;;
27939;SDS011;15275;51.716;14.324;2023-01-28T15:28:12;4.35;;;2.13;;
27939;SDS011;15275;51.716;14.324;2023-01-28T15:30:49;4.13;;;2.08;;
27939;SDS011;15275;51.716;14.324;2023-01-28T15:33:15;4.03;;;1.90;;
27939;SDS011;15275;51.716;14.324;2023-01-28T15:35:51;6.07;;;2.40;;
27939;SDS011;15275;51.716;14.324;2023-01-28T15:38:22;5.20;;;2.17;;
27939;SDS011;15275;51.716;14.324;2023-01-28T15:40:55;4.43;;;2.67;;
27939;SDS011;15275;51.716;14.324;2023-01-28T15:43:35;7.18;;;3.15;;
27939;SDS011;15275;51.716;14.324;2023-01-28T15:46:02;4.07;;;2.35;;
27939;SDS011;15275;51.716;14.324;2023-01-28T15:48:34;3.17;;;2.20;;
27939;SDS011;15275;51.716;14.324;2023-01-28T15:51:02;5.97;;;2.20;;
27939;SDS011;15275;51.716;14.324;2023-01-28T15:53:35;4.00;;;2.30;;
27939;SDS011;15275;51.716;14.324;2023-01-28T15:56:09;10.02;;;3.78;;
27939;SDS011;15275;51.716;14.324;2023-01-28T15:58:37;9.10;;;4.88;;
27939;SDS011;15275;51.716;14.324;2023-01-28T16:03:36;6.65;;;3.80;;
27939;SDS011;15275;51.716;14.324;2023-01-28T16:08:38;6.20;;;2.65;;
27939;SDS011;15275;51.716;14.324;2023-01-28T16:11:29;4.05;;;2.42;;
27939;SDS011;15275;51.716;14.324;2023-01-28T16:14:05;4.45;;;2.72;;
27939;SDS011;15275;51.716;14.324;2023-01-28T16:16:35;3.22;;;2.40;;
27939;SDS011;15275;51.716;14.324;2023-01-28T16:19:03;2.80;;;1.55;;
27939;SDS011;15275;51.716;14.324;2023-01-28T16:21:35;4.47;;;2.30;;
27939;SDS011;15275;51.716;14.324;2023-01-28T16:24:22;3.13;;;1.95;;
27939;SDS011;15275;51.716;14.324;2023-01-28T16:27:34;9.70;;;4.60;;
27939;SDS011;15275;51.716;14.324;2023-01-28T16:29:48;4.57;;;2.58;;
27939;SDS011;15275;51.716;14.324;2023-01-28T16:32:34;6.57;;;3.08;;
27939;SDS011;15275;51.716;14.324;2023-01-28T16:35:03;3.67;;;2.42;;
27939;SDS011;15275;51.716;14.324;2023-01-28T16:37:40;5.13;;;2.67;;
27939;SDS011;15275;51.716;14.324;2023-01-28T16:40:06;5.78;;;2.78;;
27939;SDS011;15275;51.716;14.324;2023-01-28T16:42:33;4.72;;;2.72;;
27939;SDS011;15275;51.716;14.324;2023-01-28T16:44:59;9.45;;;3.53;;
27939;SDS011;15275;51.716;14.324;2023-01-28T16:47:25;6.82;;;2.90;;
27939;SDS011;15275;51.716;14.324;2023-01-28T16:49:51;4.20;;;2.30;;
27939;SDS011;15275;51.716;14.324;2023-01-28T16:52:17;3.78;;;2.00;;
27939;SDS011;15275;51.716;14.324;2023-01-28T16:54:42;2.80;;;2.08;;
27939;SDS011;15275;51.716;14.324;2023-01-28T16:57:15;3.80;;;2.10;;
27939;SDS011;15275;51.716;14.324;2023-01-28T16:59:44;2.85;;;1.77;;
27939;SDS011;15275;51.716;14.324;2023-01-28T17:02:11;3.72;;;1.83;;
27939;SDS011;15275;51.716;14.324;2023-01-28T17:04:38;3.40;;;2.22;;
27939;SDS011;15275;51.716;14.324;2023-01-28T17:07:04;6.47;;;3.17;;
27939;SDS011;15275;51.716;14.324;2023-01-28T17:09:31;5.78;;;3.17;;
27939;SDS011;15275;51.716;14.324;2023-01-28T17:11:56;7.50;;;4.03;;
27939;SDS011;15275;51.716;14.324;2023-01-28T17:14:23;5.47;;;2.97;;
27939;SDS011;15275;51.716;14.324;2023-01-28T17:16:49;5.75;;;3.08;;
27939;SDS011;15275;51.716;14.324;2023-01-28T17:19:15;4.35;;;2.50;;
27939;SDS011;15275;51.716;14.324;2023-01-28T17:21:41;6.70;;;3.28;;
27939;SDS011;15275;51.716;14.324;2023-01-28T17:24:08;4.53;;;2.80;;
27939;SDS011;15275;51.716;14.324;2023-01-28T17:26:34;3.95;;;2.65;;
27939;SDS011;15275;51.716;14.324;2023-01-28T17:29:01;3.47;;;2.50;;
27939;SDS011;15275;51.716;14.324;2023-01-28T17:31:31;2.95;;;2.03;;
27939;SDS011;15275;51.716;14.324;2023-01-28T17:33:58;3.70;;;2.42;;
27939;SDS011;15275;51.716;14.324;2023-01-28T17:36:26;4.57;;;2.80;;
27939;SDS011;15275;51.716;14.324;2023-01-28T17:38:53;3.97;;;1.95;;